Date,TemperatureHighF,TemperatureAvgF,TemperatureLowF,DewpointHighF,DewpointAvgF,DewpointLowF,HumidityHigh,HumidityAvg,HumidityLow,PressureMaxIn,PressureMinIn,WindSpeedMaxMPH,WindSpeedAvgMPH,GustSpeedMaxMPH,PrecipitationSumIn
2013-5-1,54,42,36,36,30,26,80,60,50,30.44,29.93,13,6,13,0.02
2013-5-2,46,40,35,28,27,25,73,61,47,30.51,30.40,18,9,18,0.00
2013-5-3,37,34,30,30,27,24,80,76,63,30.40,30.15,19,11,19,0.07
2013-5-4,44,38,33,38,32,28,82,80,77,30.17,30.12,16,9,16,0.05
2013-5-5,69,50,37,48,39,32,81,69,46,30.16,30.05,11,5,11,0.00
2013-5-6,79,60,41,50,43,35,79,58,32,30.10,29.99,7,3,7,0.00
2013-5-7,82,67,48,55,45,40,78,49,24,30.04,29.93,11,2,11,0.00
2013-5-8,78,66,56,54,49,44,76,58,35,30.01,29.94,12,3,12,0.10
2013-5-9,58,50,43,50,42,29,80,74,58,30.12,29.96,25,11,25,0.02
2013-5-10,69,51,35,34,29,23,76,48,19,30.12,29.85,14,6,14,0.02
2013-5-11,57,45,38,39,28,23,69,52,37,30.14,29.88,23,11,23,0.00
2013-5-12,58,45,33,25,22,17,66,43,22,30.19,30.06,14,6,14,0.00
2013-5-13,70,53,34,43,33,22,76,47,28,30.08,29.63,20,7,20,0.01
2013-5-14,95,69,45,53,44,28,78,47,12,29.71,29.45,26,8,26,0.02
2013-5-15,82,74,60,47,40,35,58,32,19,29.79,29.65,19,8,19,0.00
2013-5-16,85,70,53,47,39,31,73,37,18,29.93,29.81,14,5,14,0.00
2013-5-17,66,61,56,53,45,28,79,59,24,29.99,29.91,13,6,13,0.02
2013-5-18,80,65,54,66,56,48,84,74,59,29.98,29.78,16,5,16,0.63
2013-5-19,84,69,60,65,61,56,86,75,53,29.80,29.59,17,5,17,1.11
2013-5-20,73,62,52,61,55,48,88,79,62,29.60,29.51,19,7,19,0.60
2013-5-21,54,49,46,47,44,41,87,84,78,29.73,29.55,19,10,19,0.33
2013-5-22,52,48,43,46,42,39,87,83,78,29.99,29.71,20,11,20,0.13
2013-5-23,64,52,43,41,35,29,81,55,29,30.31,30.00,18,9,18,0.00
2013-5-24,69,55,37,48,37,31,82,54,29,30.37,30.17,13,3,13,0.15
2013-5-25,68,60,53,50,47,43,84,63,45,30.24,30.19,16,7,16,0.09
2013-5-26,67,59,52,46,41,34,71,53,34,30.22,30.09,18,5,18,0.00
2013-5-27,62,59,57,53,48,45,72,68,62,30.04,29.87,12,5,12,0.00
2013-5-28,64,58,53,56,52,48,86,80,74,29.77,29.71,8,2,8,0.03
2013-5-29,83,67,57,66,58,52,85,74,48,29.81,29.63,12,5,12,0.03
2013-5-30,79,69,64,64,61,59,84,76,55,29.67,29.52,18,6,18,0.50
2013-5-31,78,68,61,60,56,52,85,66,44,29.55,29.48,15,6,15,0.11